Aeroporto :
LOGIN :

Iscrizione | Disclaimer

   EN    FR    IT 

 










Sommario :    VFR   VFR Marginale   IFR   IFR Intensivo   IFR Molto Intensivo
Visibilità : 
Base nubi : 
>= 8 km
>= 3000ft
5 / 8 km
1000 / 3000 ft
1500m / 5 km
500 / 1000 ft
800 / 1500m
200 / 500 ft
< 800m
< 200 ft
Simboli :   Temporali  Nebbia  Neve Forte  Precipitazioni Forti  Vento > 20 kt
SIGMETs :   Varie  Temporali  Ghiacco  Turbolenza  Onda orograficha  Ceneri Vulcaniche






- Altitudine del aeroporto : 396 ft


LFOZ - Orléans St Denis

ULTIMO METAR :
  • 302000Z AUTO 04006KT 010V070 CAVOK 05/M08 Q1024

METARs OBSOLETI :
  • 301930Z AUTO 04005KT 020V080 CAVOK 06/M09 Q1024
  • 301900Z AUTO 05008KT CAVOK 06/M10 Q1024
  • 301830Z AUTO 06010KT CAVOK 07/M10 Q1023
  • 301800Z AUTO 06015KT CAVOK 08/M12 Q1023
  • 301730Z AUTO 06016KT 030V090 CAVOK 08/M13 Q1023

TAF N/A



MetMap, La meteo Aeronautica in un colpo d'occhio ! - Copyright ORBIFLY Dicembre 2007 - Disclaimer

ORBIFLY MET'MAP TEAM :

Programmazione e sviluppo : Alexandra Zaïnal
Concezione : Baudouin d'Aumeries
Aiuto per la programmazione : Marc-Olivier Méhu
Supporto tecnico e logistico : Manuel Goepfert
Aiuto per la traduzione : Arnaldo La Scala

Contatto : metmap@orbifly.com




FONTI E CREDITI :

   NOAA